sensor_id;sensor_type;location;lat;lon;timestamp;pressure;altitude;pressure_sealevel;temperature;humidity
57452;BME280;66031;51.224;-0.164;2023-03-08T00:01:11;98944.04;;;20.49;25.48
57452;BME280;66031;51.224;-0.164;2023-03-08T00:03:34;98937.00;;;20.37;25.31
57452;BME280;66031;51.224;-0.164;2023-03-08T00:06:03;98937.42;;;19.98;25.46
57452;BME280;66031;51.224;-0.164;2023-03-08T00:08:25;98943.28;;;20.14;25.47
57452;BME280;66031;51.224;-0.164;2023-03-08T00:10:50;98955.59;;;20.31;25.54
57452;BME280;66031;51.224;-0.164;2023-03-08T00:13:16;98959.13;;;20.33;25.50
57452;BME280;66031;51.224;-0.164;2023-03-08T00:15:41;98954.78;;;19.97;25.60
57452;BME280;66031;51.224;-0.164;2023-03-08T00:18:06;98949.21;;;20.21;25.36
57452;BME280;66031;51.224;-0.164;2023-03-08T00:20:32;98941.36;;;20.27;25.52
57452;BME280;66031;51.224;-0.164;2023-03-08T00:22:57;98930.88;;;20.18;25.57
57452;BME280;66031;51.224;-0.164;2023-03-08T00:25:23;98938.60;;;19.94;25.59
57452;BME280;66031;51.224;-0.164;2023-03-08T00:27:48;98929.84;;;20.12;25.59
57452;BME280;66031;51.224;-0.164;2023-03-08T00:30:14;98918.48;;;19.90;25.60
57452;BME280;66031;51.224;-0.164;2023-03-08T00:32:39;98920.06;;;19.79;25.68
57452;BME280;66031;51.224;-0.164;2023-03-08T00:35:05;98907.70;;;20.21;25.70
57452;BME280;66031;51.224;-0.164;2023-03-08T00:37:30;98889.11;;;19.71;25.72
57452;BME280;66031;51.224;-0.164;2023-03-08T00:39:56;98875.74;;;19.94;25.72
57452;BME280;66031;51.224;-0.164;2023-03-08T00:42:21;98864.90;;;19.91;25.69
57452;BME280;66031;51.224;-0.164;2023-03-08T00:44:47;98867.70;;;19.83;25.74
57452;BME280;66031;51.224;-0.164;2023-03-08T00:47:12;98870.62;;;19.89;25.69
57452;BME280;66031;51.224;-0.164;2023-03-08T00:49:38;98871.85;;;19.58;25.72
57452;BME280;66031;51.224;-0.164;2023-03-08T00:52:02;98866.12;;;19.59;25.70
57452;BME280;66031;51.224;-0.164;2023-03-08T00:54:28;98854.46;;;19.90;25.64
57452;BME280;66031;51.224;-0.164;2023-03-08T00:56:54;98856.68;;;19.93;25.62
57452;BME280;66031;51.224;-0.164;2023-03-08T00:59:19;98849.67;;;19.95;25.54
57452;BME280;66031;51.224;-0.164;2023-03-08T01:01:44;98841.55;;;19.85;25.60
57452;BME280;66031;51.224;-0.164;2023-03-08T01:04:10;98838.44;;;19.73;25.70
57452;BME280;66031;51.224;-0.164;2023-03-08T01:06:36;98835.37;;;19.76;25.67
57452;BME280;66031;51.224;-0.164;2023-03-08T01:09:01;98835.99;;;19.71;25.72
57452;BME280;66031;51.224;-0.164;2023-03-08T01:11:26;98832.77;;;19.63;25.79
57452;BME280;66031;51.224;-0.164;2023-03-08T01:13:53;98830.98;;;19.69;25.68
57452;BME280;66031;51.224;-0.164;2023-03-08T01:16:19;98831.85;;;19.62;25.75
57452;BME280;66031;51.224;-0.164;2023-03-08T01:18:43;98825.49;;;19.75;25.64
57452;BME280;66031;51.224;-0.164;2023-03-08T01:21:09;98814.54;;;19.61;25.71
57452;BME280;66031;51.224;-0.164;2023-03-08T01:23:34;98802.07;;;19.41;25.66
57452;BME280;66031;51.224;-0.164;2023-03-08T01:26:00;98789.12;;;19.57;25.74
57452;BME280;66031;51.224;-0.164;2023-03-08T01:28:25;98776.75;;;19.38;25.65
57452;BME280;66031;51.224;-0.164;2023-03-08T01:30:50;98769.45;;;19.56;25.72
57452;BME280;66031;51.224;-0.164;2023-03-08T01:33:15;98767.11;;;19.41;25.83
57452;BME280;66031;51.224;-0.164;2023-03-08T01:35:41;98759.68;;;19.41;25.79
57452;BME280;66031;51.224;-0.164;2023-03-08T01:38:06;98750.24;;;19.44;25.76
57452;BME280;66031;51.224;-0.164;2023-03-08T01:40:32;98746.07;;;19.57;25.85
57452;BME280;66031;51.224;-0.164;2023-03-08T01:42:57;98735.78;;;19.39;25.79
57452;BME280;66031;51.224;-0.164;2023-03-08T01:47:48;98717.05;;;19.41;25.75
57452;BME280;66031;51.224;-0.164;2023-03-08T01:50:14;98716.31;;;19.44;25.69
57452;BME280;66031;51.224;-0.164;2023-03-08T01:52:42;98710.14;;;19.40;25.72
57452;BME280;66031;51.224;-0.164;2023-03-08T01:55:08;98704.93;;;19.36;25.74
57452;BME280;66031;51.224;-0.164;2023-03-08T01:57:32;98694.86;;;19.39;25.69
57452;BME280;66031;51.224;-0.164;2023-03-08T01:59:58;98691.46;;;19.37;25.68
57452;BME280;66031;51.224;-0.164;2023-03-08T02:02:22;98690.00;;;19.29;25.73
57452;BME280;66031;51.224;-0.164;2023-03-08T02:04:46;98686.40;;;19.22;25.77
57452;BME280;66031;51.224;-0.164;2023-03-08T02:07:12;98676.49;;;19.23;25.76
57452;BME280;66031;51.224;-0.164;2023-03-08T02:09:37;98667.48;;;19.44;25.75
57452;BME280;66031;51.224;-0.164;2023-03-08T02:12:07;98661.96;;;19.14;25.82
57452;BME280;66031;51.224;-0.164;2023-03-08T02:14:28;98653.70;;;19.19;25.74
57452;BME280;66031;51.224;-0.164;2023-03-08T02:16:53;98649.51;;;19.56;25.81
57452;BME280;66031;51.224;-0.164;2023-03-08T02:19:22;98640.96;;;19.31;25.61
57452;BME280;66031;51.224;-0.164;2023-03-08T02:21:44;98640.56;;;19.19;25.73
57452;BME280;66031;51.224;-0.164;2023-03-08T02:24:16;98631.31;;;19.25;25.66
57452;BME280;66031;51.224;-0.164;2023-03-08T02:26:36;98625.59;;;19.23;25.66
57452;BME280;66031;51.224;-0.164;2023-03-08T02:29:01;98626.22;;;19.22;25.63
57452;BME280;66031;51.224;-0.164;2023-03-08T02:31:26;98616.08;;;19.15;25.68
57452;BME280;66031;51.224;-0.164;2023-03-08T02:33:51;98610.10;;;19.03;25.75
57452;BME280;66031;51.224;-0.164;2023-03-08T02:36:17;98603.28;;;19.01;25.78
57452;BME280;66031;51.224;-0.164;2023-03-08T02:38:42;98593.74;;;19.50;25.76
57452;BME280;66031;51.224;-0.164;2023-03-08T02:41:08;98588.56;;;19.05;25.74
57452;BME280;66031;51.224;-0.164;2023-03-08T02:43:34;98580.50;;;19.19;25.79
57452;BME280;66031;51.224;-0.164;2023-03-08T02:45:59;98574.61;;;19.37;25.81
57452;BME280;66031;51.224;-0.164;2023-03-08T02:48:24;98570.85;;;19.26;25.69
57452;BME280;66031;51.224;-0.164;2023-03-08T02:50:49;98564.62;;;19.01;25.69
57452;BME280;66031;51.224;-0.164;2023-03-08T02:53:15;98560.45;;;19.41;25.72
57452;BME280;66031;51.224;-0.164;2023-03-08T02:55:40;98552.91;;;19.40;25.72
57452;BME280;66031;51.224;-0.164;2023-03-08T02:58:07;98544.45;;;19.30;25.80
57452;BME280;66031;51.224;-0.164;2023-03-08T03:00:31;98538.06;;;19.27;25.80
57452;BME280;66031;51.224;-0.164;2023-03-08T03:02:56;98529.16;;;19.05;25.78
57452;BME280;66031;51.224;-0.164;2023-03-08T03:05:22;98522.86;;;19.33;25.73
57452;BME280;66031;51.224;-0.164;2023-03-08T03:07:47;98517.75;;;18.98;25.81
57452;BME280;66031;51.224;-0.164;2023-03-08T03:10:13;98511.03;;;19.28;25.76
57452;BME280;66031;51.224;-0.164;2023-03-08T03:12:38;98507.40;;;19.37;25.67
57452;BME280;66031;51.224;-0.164;2023-03-08T03:15:05;98510.04;;;18.74;25.77
57452;BME280;66031;51.224;-0.164;2023-03-08T03:17:30;98510.84;;;19.13;25.66
57452;BME280;66031;51.224;-0.164;2023-03-08T03:19:55;98506.60;;;19.16;25.62
57452;BME280;66031;51.224;-0.164;2023-03-08T03:22:20;98499.27;;;19.08;25.63
57452;BME280;66031;51.224;-0.164;2023-03-08T03:24:46;98493.49;;;19.02;25.69
57452;BME280;66031;51.224;-0.164;2023-03-08T03:27:11;98492.23;;;18.94;25.75
57452;BME280;66031;51.224;-0.164;2023-03-08T03:29:37;98486.38;;;19.14;25.76
57452;BME280;66031;51.224;-0.164;2023-03-08T03:32:02;98481.80;;;19.22;25.67
57452;BME280;66031;51.224;-0.164;2023-03-08T03:34:27;98478.31;;;19.15;25.76
57452;BME280;66031;51.224;-0.164;2023-03-08T03:36:53;98474.65;;;18.91;25.72
57452;BME280;66031;51.224;-0.164;2023-03-08T03:39:18;98471.55;;;18.86;25.75
57452;BME280;66031;51.224;-0.164;2023-03-08T03:41:43;98463.56;;;19.04;25.78
57452;BME280;66031;51.224;-0.164;2023-03-08T03:44:09;98455.74;;;18.95;25.84
57452;BME280;66031;51.224;-0.164;2023-03-08T03:46:34;98435.97;;;18.49;25.81
57452;BME280;66031;51.224;-0.164;2023-03-08T03:49:00;98425.21;;;18.96;25.79
57452;BME280;66031;51.224;-0.164;2023-03-08T03:51:25;98429.85;;;18.92;25.82
57452;BME280;66031;51.224;-0.164;2023-03-08T03:53:51;98440.73;;;18.68;25.82
57452;BME280;66031;51.224;-0.164;2023-03-08T03:56:19;98447.17;;;18.56;25.70
57452;BME280;66031;51.224;-0.164;2023-03-08T03:58:42;98451.87;;;18.76;25.71
57452;BME280;66031;51.224;-0.164;2023-03-08T04:01:08;98462.14;;;18.90;25.77
57452;BME280;66031;51.224;-0.164;2023-03-08T04:03:32;98459.00;;;18.66;25.77
57452;BME280;66031;51.224;-0.164;2023-03-08T04:06:04;98446.60;;;18.87;25.79
57452;BME280;66031;51.224;-0.164;2023-03-08T04:08:23;98437.11;;;18.89;25.77
57452;BME280;66031;51.224;-0.164;2023-03-08T04:10:48;98424.39;;;18.87;25.78
57452;BME280;66031;51.224;-0.164;2023-03-08T04:13:14;98429.42;;;18.88;25.75
57452;BME280;66031;51.224;-0.164;2023-03-08T04:15:39;98441.14;;;18.81;25.78
57452;BME280;66031;51.224;-0.164;2023-03-08T04:18:05;98427.99;;;18.74;25.62
57452;BME280;66031;51.224;-0.164;2023-03-08T04:20:30;98405.66;;;18.90;25.67
57452;BME280;66031;51.224;-0.164;2023-03-08T04:22:56;98399.84;;;18.84;25.71
57452;BME280;66031;51.224;-0.164;2023-03-08T04:25:21;98404.65;;;18.85;25.68
57452;BME280;66031;51.224;-0.164;2023-03-08T04:27:47;98405.62;;;18.65;25.68
57452;BME280;66031;51.224;-0.164;2023-03-08T04:30:13;98402.03;;;18.82;25.70
57452;BME280;66031;51.224;-0.164;2023-03-08T04:32:37;98390.58;;;18.79;25.70
57452;BME280;66031;51.224;-0.164;2023-03-08T04:35:03;98387.02;;;18.63;25.84
57452;BME280;66031;51.224;-0.164;2023-03-08T04:37:28;98377.90;;;18.56;25.88
57452;BME280;66031;51.224;-0.164;2023-03-08T04:39:54;98357.98;;;18.55;25.89
57452;BME280;66031;51.224;-0.164;2023-03-08T04:42:19;98353.93;;;18.62;25.80
57452;BME280;66031;51.224;-0.164;2023-03-08T04:44:44;98356.06;;;18.48;25.88
57452;BME280;66031;51.224;-0.164;2023-03-08T04:47:10;98356.21;;;18.59;25.78
57452;BME280;66031;51.224;-0.164;2023-03-08T04:49:35;98348.21;;;18.59;25.78
57452;BME280;66031;51.224;-0.164;2023-03-08T04:52:01;98340.02;;;18.79;25.79
57452;BME280;66031;51.224;-0.164;2023-03-08T04:54:26;98344.03;;;18.55;25.78
57452;BME280;66031;51.224;-0.164;2023-03-08T04:56:52;98338.66;;;18.16;25.86
57452;BME280;66031;51.224;-0.164;2023-03-08T04:59:17;98330.12;;;18.54;25.75
57452;BME280;66031;51.224;-0.164;2023-03-08T05:01:42;98328.75;;;18.55;25.74
57452;BME280;66031;51.224;-0.164;2023-03-08T05:04:09;98327.39;;;18.59;25.70
57452;BME280;66031;51.224;-0.164;2023-03-08T05:06:33;98312.82;;;18.53;25.71
57452;BME280;66031;51.224;-0.164;2023-03-08T05:08:59;98303.09;;;18.52;25.74
57452;BME280;66031;51.224;-0.164;2023-03-08T05:11:26;98319.30;;;18.56;25.66
57452;BME280;66031;51.224;-0.164;2023-03-08T05:13:52;98342.81;;;18.42;25.76
57452;BME280;66031;51.224;-0.164;2023-03-08T05:16:15;98350.62;;;18.42;25.77
57452;BME280;66031;51.224;-0.164;2023-03-08T05:18:40;98346.42;;;18.57;25.60
57452;BME280;66031;51.224;-0.164;2023-03-08T05:21:10;98334.00;;;18.52;25.62
57452;BME280;66031;51.224;-0.164;2023-03-08T05:23:32;98327.07;;;18.48;25.67
57452;BME280;66031;51.224;-0.164;2023-03-08T05:25:59;98323.21;;;18.16;25.71
57452;BME280;66031;51.224;-0.164;2023-03-08T05:28:24;98322.10;;;18.39;25.72
57452;BME280;66031;51.224;-0.164;2023-03-08T05:30:48;98314.03;;;18.43;25.65
57452;BME280;66031;51.224;-0.164;2023-03-08T05:33:14;98311.69;;;18.20;25.65
57452;BME280;66031;51.224;-0.164;2023-03-08T05:35:38;98307.51;;;18.63;25.48
57452;BME280;66031;51.224;-0.164;2023-03-08T05:38:04;98302.56;;;18.75;25.51
57452;BME280;66031;51.224;-0.164;2023-03-08T05:40:29;98290.72;;;19.05;25.24
57452;BME280;66031;51.224;-0.164;2023-03-08T05:42:55;98293.56;;;19.32;25.03
57452;BME280;66031;51.224;-0.164;2023-03-08T05:45:20;98286.53;;;19.60;24.88
57452;BME280;66031;51.224;-0.164;2023-03-08T05:47:45;98285.55;;;19.67;24.82
57452;BME280;66031;51.224;-0.164;2023-03-08T05:50:11;98286.62;;;19.84;24.79
57452;BME280;66031;51.224;-0.164;2023-03-08T05:52:36;98288.14;;;19.86;24.76
57452;BME280;66031;51.224;-0.164;2023-03-08T05:55:02;98282.85;;;19.98;24.67
57452;BME280;66031;51.224;-0.164;2023-03-08T05:57:27;98272.78;;;19.91;24.60
57452;BME280;66031;51.224;-0.164;2023-03-08T05:59:52;98260.98;;;20.02;24.52
57452;BME280;66031;51.224;-0.164;2023-03-08T06:02:18;98266.65;;;19.85;24.57
57452;BME280;66031;51.224;-0.164;2023-03-08T06:04:43;98277.47;;;20.45;24.52
57452;BME280;66031;51.224;-0.164;2023-03-08T06:07:09;98283.63;;;20.31;24.43
57452;BME280;66031;51.224;-0.164;2023-03-08T06:09:35;98283.43;;;20.67;24.34
57452;BME280;66031;51.224;-0.164;2023-03-08T06:11:59;98278.98;;;20.32;24.26
57452;BME280;66031;51.224;-0.164;2023-03-08T06:14:25;98271.67;;;20.41;24.21
57452;BME280;66031;51.224;-0.164;2023-03-08T06:16:50;98267.10;;;20.56;24.19
57452;BME280;66031;51.224;-0.164;2023-03-08T06:19:16;98248.19;;;20.97;23.84
57452;BME280;66031;51.224;-0.164;2023-03-08T06:21:41;98240.23;;;20.98;23.85
57452;BME280;66031;51.224;-0.164;2023-03-08T06:24:07;98240.49;;;20.92;23.97
57452;BME280;66031;51.224;-0.164;2023-03-08T06:26:32;98240.32;;;20.85;23.82
57452;BME280;66031;51.224;-0.164;2023-03-08T06:28:57;98246.92;;;21.20;23.75
57452;BME280;66031;51.224;-0.164;2023-03-08T06:31:22;98241.14;;;20.97;23.77
57452;BME280;66031;51.224;-0.164;2023-03-08T06:33:48;98240.72;;;21.19;23.79
57452;BME280;66031;51.224;-0.164;2023-03-08T06:36:15;98236.07;;;21.11;23.91
57452;BME280;66031;51.224;-0.164;2023-03-08T06:38:40;98229.44;;;20.96;23.87
57452;BME280;66031;51.224;-0.164;2023-03-08T06:41:04;98221.53;;;21.27;23.83
57452;BME280;66031;51.224;-0.164;2023-03-08T06:43:30;98213.00;;;21.24;23.87
57452;BME280;66031;51.224;-0.164;2023-03-08T06:45:55;98221.90;;;21.38;23.78
57452;BME280;66031;51.224;-0.164;2023-03-08T06:48:20;98225.85;;;21.21;23.73
57452;BME280;66031;51.224;-0.164;2023-03-08T06:50:45;98219.52;;;21.22;23.77
57452;BME280;66031;51.224;-0.164;2023-03-08T06:53:12;98210.66;;;21.36;23.71
57452;BME280;66031;51.224;-0.164;2023-03-08T06:55:37;98210.38;;;21.35;23.77
57452;BME280;66031;51.224;-0.164;2023-03-08T06:58:01;98205.79;;;21.44;23.72
57452;BME280;66031;51.224;-0.164;2023-03-08T07:00:27;98197.94;;;21.52;23.65
57452;BME280;66031;51.224;-0.164;2023-03-08T07:02:52;98208.06;;;21.51;23.71
57452;BME280;66031;51.224;-0.164;2023-03-08T07:05:18;98203.43;;;21.59;23.69
57452;BME280;66031;51.224;-0.164;2023-03-08T07:07:42;98203.17;;;21.68;23.66
57452;BME280;66031;51.224;-0.164;2023-03-08T07:10:10;98203.09;;;21.69;23.66
57452;BME280;66031;51.224;-0.164;2023-03-08T07:12:33;98206.50;;;21.82;23.48
57452;BME280;66031;51.224;-0.164;2023-03-08T07:14:58;98211.93;;;22.10;23.29
57452;BME280;66031;51.224;-0.164;2023-03-08T07:17:24;98209.67;;;22.28;23.18
57452;BME280;66031;51.224;-0.164;2023-03-08T07:19:49;98218.94;;;22.20;23.01
57452;BME280;66031;51.224;-0.164;2023-03-08T07:22:14;98220.92;;;22.45;23.26
57452;BME280;66031;51.224;-0.164;2023-03-08T07:24:40;98230.60;;;22.50;23.17
57452;BME280;66031;51.224;-0.164;2023-03-08T07:27:05;98232.70;;;22.61;23.20
57452;BME280;66031;51.224;-0.164;2023-03-08T07:29:30;98228.58;;;22.74;23.45
57452;BME280;66031;51.224;-0.164;2023-03-08T07:31:56;98233.38;;;22.82;23.38
57452;BME280;66031;51.224;-0.164;2023-03-08T07:34:21;98240.21;;;22.82;23.48
57452;BME280;66031;51.224;-0.164;2023-03-08T07:36:46;98243.27;;;22.89;23.23
57452;BME280;66031;51.224;-0.164;2023-03-08T07:39:11;98239.44;;;22.65;23.21
57452;BME280;66031;51.224;-0.164;2023-03-08T07:41:37;98242.34;;;22.67;23.25
57452;BME280;66031;51.224;-0.164;2023-03-08T07:44:02;98252.25;;;22.36;23.33
57452;BME280;66031;51.224;-0.164;2023-03-08T07:46:27;98254.14;;;22.29;23.76
57452;BME280;66031;51.224;-0.164;2023-03-08T07:48:53;98257.50;;;22.77;23.89
57452;BME280;66031;51.224;-0.164;2023-03-08T07:51:18;98257.87;;;22.40;23.84
57452;BME280;66031;51.224;-0.164;2023-03-08T07:53:43;98247.22;;;22.36;23.99
57452;BME280;66031;51.224;-0.164;2023-03-08T07:56:09;98242.29;;;22.27;23.86
57452;BME280;66031;51.224;-0.164;2023-03-08T07:58:34;98248.41;;;22.54;23.93
57452;BME280;66031;51.224;-0.164;2023-03-08T08:00:59;98248.30;;;22.35;24.14
57452;BME280;66031;51.224;-0.164;2023-03-08T08:03:24;98250.51;;;22.08;23.98
57452;BME280;66031;51.224;-0.164;2023-03-08T08:05:50;98252.00;;;21.99;24.12
57452;BME280;66031;51.224;-0.164;2023-03-08T08:08:15;98257.81;;;22.21;24.31
57452;BME280;66031;51.224;-0.164;2023-03-08T08:10:40;98253.83;;;22.04;24.31
57452;BME280;66031;51.224;-0.164;2023-03-08T08:13:06;98253.18;;;22.00;24.34
57452;BME280;66031;51.224;-0.164;2023-03-08T08:15:31;98249.54;;;21.90;24.48
57452;BME280;66031;51.224;-0.164;2023-03-08T08:17:56;98251.57;;;21.98;24.31
57452;BME280;66031;51.224;-0.164;2023-03-08T08:20:21;98243.82;;;21.90;24.29
57452;BME280;66031;51.224;-0.164;2023-03-08T08:22:47;98255.73;;;21.64;24.37
57452;BME280;66031;51.224;-0.164;2023-03-08T08:25:12;98246.22;;;21.59;24.32
57452;BME280;66031;51.224;-0.164;2023-03-08T08:27:37;98242.15;;;21.59;24.33
57452;BME280;66031;51.224;-0.164;2023-03-08T08:30:04;98251.23;;;21.52;24.29
57452;BME280;66031;51.224;-0.164;2023-03-08T08:32:28;98259.53;;;21.38;24.45
57452;BME280;66031;51.224;-0.164;2023-03-08T08:34:53;98258.47;;;21.00;24.42
57452;BME280;66031;51.224;-0.164;2023-03-08T08:37:19;98258.62;;;21.30;24.49
57452;BME280;66031;51.224;-0.164;2023-03-08T08:39:44;98268.04;;;21.19;24.56
57452;BME280;66031;51.224;-0.164;2023-03-08T08:42:09;98270.53;;;21.09;24.52
57452;BME280;66031;51.224;-0.164;2023-03-08T08:44:35;98269.90;;;20.97;24.53
57452;BME280;66031;51.224;-0.164;2023-03-08T08:47:00;98258.33;;;21.00;24.40
57452;BME280;66031;51.224;-0.164;2023-03-08T08:49:25;98229.47;;;20.81;24.57
57452;BME280;66031;51.224;-0.164;2023-03-08T08:51:51;98220.19;;;20.78;24.51
57452;BME280;66031;51.224;-0.164;2023-03-08T08:54:16;98211.89;;;20.85;24.58
57452;BME280;66031;51.224;-0.164;2023-03-08T08:56:41;98203.29;;;20.61;24.46
57452;BME280;66031;51.224;-0.164;2023-03-08T08:59:08;98222.15;;;20.37;24.47
57452;BME280;66031;51.224;-0.164;2023-03-08T09:01:32;98256.54;;;20.30;24.40
57452;BME280;66031;51.224;-0.164;2023-03-08T09:03:58;98262.95;;;20.33;24.39
57452;BME280;66031;51.224;-0.164;2023-03-08T09:06:25;98271.08;;;20.22;24.73
57452;BME280;66031;51.224;-0.164;2023-03-08T09:08:49;98269.77;;;20.32;24.72
57452;BME280;66031;51.224;-0.164;2023-03-08T09:11:13;98257.98;;;20.28;24.68
57452;BME280;66031;51.224;-0.164;2023-03-08T09:13:40;98246.88;;;19.82;24.54
57452;BME280;66031;51.224;-0.164;2023-03-08T09:16:04;98240.49;;;20.05;24.46
57452;BME280;66031;51.224;-0.164;2023-03-08T09:18:29;98243.99;;;20.24;24.28
57452;BME280;66031;51.224;-0.164;2023-03-08T09:20:56;98237.66;;;20.26;24.41
57452;BME280;66031;51.224;-0.164;2023-03-08T09:23:20;98235.14;;;20.03;24.41
57452;BME280;66031;51.224;-0.164;2023-03-08T09:25:54;98238.56;;;19.83;24.51
57452;BME280;66031;51.224;-0.164;2023-03-08T09:28:11;98239.98;;;19.98;24.61
57452;BME280;66031;51.224;-0.164;2023-03-08T09:30:36;98240.47;;;19.73;24.56
57452;BME280;66031;51.224;-0.164;2023-03-08T09:33:02;98249.41;;;19.91;24.61
57452;BME280;66031;51.224;-0.164;2023-03-08T09:35:27;98257.27;;;19.65;24.59
57452;BME280;66031;51.224;-0.164;2023-03-08T09:37:52;98259.12;;;19.77;24.78
57452;BME280;66031;51.224;-0.164;2023-03-08T09:40:20;98257.02;;;19.68;24.65
57452;BME280;66031;51.224;-0.164;2023-03-08T09:42:43;98249.56;;;19.58;24.81
57452;BME280;66031;51.224;-0.164;2023-03-08T09:45:18;98248.55;;;19.88;24.74
57452;BME280;66031;51.224;-0.164;2023-03-08T09:47:40;98236.78;;;19.24;25.04
57452;BME280;66031;51.224;-0.164;2023-03-08T09:50:06;98220.81;;;19.85;24.72
57452;BME280;66031;51.224;-0.164;2023-03-08T09:52:29;98214.52;;;20.08;24.74
57452;BME280;66031;51.224;-0.164;2023-03-08T09:54:50;98227.82;;;20.12;24.34
57452;BME280;66031;51.224;-0.164;2023-03-08T09:57:19;98234.93;;;20.99;23.80
57452;BME280;66031;51.224;-0.164;2023-03-08T09:59:48;98239.12;;;21.22;23.63
57452;BME280;66031;51.224;-0.164;2023-03-08T10:02:18;98248.64;;;21.38;23.82
57452;BME280;66031;51.224;-0.164;2023-03-08T10:04:40;98238.37;;;21.54;23.64
57452;BME280;66031;51.224;-0.164;2023-03-08T10:07:09;98231.88;;;21.38;23.44
57452;BME280;66031;51.224;-0.164;2023-03-08T10:09:29;98235.85;;;21.42;23.43
57452;BME280;66031;51.224;-0.164;2023-03-08T10:11:54;98225.87;;;21.55;23.38
57452;BME280;66031;51.224;-0.164;2023-03-08T10:14:18;98220.07;;;21.72;23.23
57452;BME280;66031;51.224;-0.164;2023-03-08T10:16:41;98224.29;;;21.37;23.16
57452;BME280;66031;51.224;-0.164;2023-03-08T10:19:09;98230.82;;;22.17;22.98
57452;BME280;66031;51.224;-0.164;2023-03-08T10:21:31;98234.30;;;22.22;22.99
57452;BME280;66031;51.224;-0.164;2023-03-08T10:23:58;98231.94;;;21.77;23.00
57452;BME280;66031;51.224;-0.164;2023-03-08T10:26:19;98231.39;;;22.28;22.99
57452;BME280;66031;51.224;-0.164;2023-03-08T10:28:45;98234.09;;;22.24;22.96
57452;BME280;66031;51.224;-0.164;2023-03-08T10:31:19;98235.51;;;22.30;22.89
57452;BME280;66031;51.224;-0.164;2023-03-08T10:33:35;98228.96;;;22.14;22.93
57452;BME280;66031;51.224;-0.164;2023-03-08T10:36:03;98224.16;;;22.52;22.85
57452;BME280;66031;51.224;-0.164;2023-03-08T10:38:28;98227.15;;;22.30;22.88
57452;BME280;66031;51.224;-0.164;2023-03-08T10:40:58;98225.02;;;22.57;22.89
57452;BME280;66031;51.224;-0.164;2023-03-08T10:43:24;98219.64;;;22.36;22.93
57452;BME280;66031;51.224;-0.164;2023-03-08T10:45:42;98217.73;;;22.59;22.98
57452;BME280;66031;51.224;-0.164;2023-03-08T10:48:16;98222.88;;;22.54;23.04
57452;BME280;66031;51.224;-0.164;2023-03-08T10:50:34;98230.35;;;22.55;23.11
57452;BME280;66031;51.224;-0.164;2023-03-08T10:53:07;98237.28;;;22.70;23.03
57452;BME280;66031;51.224;-0.164;2023-03-08T10:55:26;98236.19;;;22.68;23.06
57452;BME280;66031;51.224;-0.164;2023-03-08T10:57:51;98236.11;;;22.72;23.04
57452;BME280;66031;51.224;-0.164;2023-03-08T11:00:27;98235.87;;;22.45;23.10
57452;BME280;66031;51.224;-0.164;2023-03-08T11:02:39;98234.67;;;22.39;23.22
57452;BME280;66031;51.224;-0.164;2023-03-08T11:05:16;98234.82;;;22.59;23.26
57452;BME280;66031;51.224;-0.164;2023-03-08T11:07:32;98236.72;;;22.58;23.30
57452;BME280;66031;51.224;-0.164;2023-03-08T11:10:06;98233.33;;;22.26;23.38
57452;BME280;66031;51.224;-0.164;2023-03-08T11:12:22;98231.54;;;22.17;23.56
57452;BME280;66031;51.224;-0.164;2023-03-08T11:14:45;98236.42;;;22.17;23.50
57452;BME280;66031;51.224;-0.164;2023-03-08T11:17:15;98240.02;;;22.13;23.64
57452;BME280;66031;51.224;-0.164;2023-03-08T11:19:45;98237.15;;;22.51;23.43
57452;BME280;66031;51.224;-0.164;2023-03-08T11:22:11;98240.63;;;22.19;23.51
57452;BME280;66031;51.224;-0.164;2023-03-08T11:24:37;98241.45;;;22.13;23.66
57452;BME280;66031;51.224;-0.164;2023-03-08T11:27:00;98242.81;;;22.20;23.57
57452;BME280;66031;51.224;-0.164;2023-03-08T11:29:26;98237.78;;;22.21;23.49
57452;BME280;66031;51.224;-0.164;2023-03-08T11:31:49;98233.40;;;22.33;23.53
57452;BME280;66031;51.224;-0.164;2023-03-08T11:34:17;98231.51;;;22.54;23.60
57452;BME280;66031;51.224;-0.164;2023-03-08T11:36:38;98227.53;;;22.50;23.70
57452;BME280;66031;51.224;-0.164;2023-03-08T11:39:03;98228.07;;;22.19;23.46
57452;BME280;66031;51.224;-0.164;2023-03-08T11:41:29;98225.67;;;22.18;23.51
57452;BME280;66031;51.224;-0.164;2023-03-08T11:44:03;98227.54;;;22.48;23.41
57452;BME280;66031;51.224;-0.164;2023-03-08T11:46:20;98231.86;;;22.28;23.38
57452;BME280;66031;51.224;-0.164;2023-03-08T11:48:53;98240.42;;;22.30;23.35
57452;BME280;66031;51.224;-0.164;2023-03-08T11:51:09;98244.35;;;22.42;23.26
57452;BME280;66031;51.224;-0.164;2023-03-08T11:53:39;98250.72;;;22.43;23.35
57452;BME280;66031;51.224;-0.164;2023-03-08T11:58:27;98244.59;;;22.50;23.22
57452;BME280;66031;51.224;-0.164;2023-03-08T12:00:48;98247.94;;;22.48;23.27
57452;BME280;66031;51.224;-0.164;2023-03-08T12:03:15;98251.22;;;22.39;23.37
57452;BME280;66031;51.224;-0.164;2023-03-08T12:05:40;98250.34;;;22.38;23.31
57452;BME280;66031;51.224;-0.164;2023-03-08T12:08:11;98249.78;;;22.30;23.44
57452;BME280;66031;51.224;-0.164;2023-03-08T12:10:29;98247.41;;;22.24;23.44
57452;BME280;66031;51.224;-0.164;2023-03-08T12:12:56;98244.24;;;22.64;23.50
57452;BME280;66031;51.224;-0.164;2023-03-08T12:15:25;98241.41;;;22.27;23.40
57452;BME280;66031;51.224;-0.164;2023-03-08T12:17:47;98238.55;;;21.84;23.55
57452;BME280;66031;51.224;-0.164;2023-03-08T12:20:12;98235.06;;;22.02;23.61
57452;BME280;66031;51.224;-0.164;2023-03-08T12:22:43;98230.41;;;22.22;23.65
57452;BME280;66031;51.224;-0.164;2023-03-08T12:25:06;98224.72;;;21.79;23.73
57452;BME280;66031;51.224;-0.164;2023-03-08T12:27:29;98227.96;;;22.05;23.65
57452;BME280;66031;51.224;-0.164;2023-03-08T12:29:54;98224.21;;;21.76;23.85
57452;BME280;66031;51.224;-0.164;2023-03-08T12:32:16;98222.87;;;21.55;23.77
57452;BME280;66031;51.224;-0.164;2023-03-08T12:34:43;98226.24;;;21.47;24.01
57452;BME280;66031;51.224;-0.164;2023-03-08T12:37:19;98220.76;;;21.26;24.13
57452;BME280;66031;51.224;-0.164;2023-03-08T12:39:33;98216.13;;;21.12;23.95
57452;BME280;66031;51.224;-0.164;2023-03-08T12:41:59;98211.78;;;21.04;23.92
57452;BME280;66031;51.224;-0.164;2023-03-08T12:44:24;98200.27;;;21.51;23.95